sensor_id;sensor_type;location;lat;lon;timestamp;pressure;altitude;pressure_sealevel;temperature;humidity
11268;BME280;49397;47.474;9.416;2023-05-23T00:02:17;95290.81;;;16.36;73.84
11268;BME280;49397;47.474;9.416;2023-05-23T00:04:42;95290.16;;;16.27;74.23
11268;BME280;49397;47.474;9.416;2023-05-23T00:07:09;95288.16;;;16.40;73.55
11268;BME280;49397;47.474;9.416;2023-05-23T00:09:34;95288.94;;;16.68;72.30
11268;BME280;49397;47.474;9.416;2023-05-23T00:12:01;95290.94;;;16.87;70.46
11268;BME280;49397;47.474;9.416;2023-05-23T00:14:27;95295.72;;;16.93;69.78
11268;BME280;49397;47.474;9.416;2023-05-23T00:16:55;95288.91;;;17.00;69.48
11268;BME280;49397;47.474;9.416;2023-05-23T00:19:20;95286.88;;;17.12;68.68
11268;BME280;49397;47.474;9.416;2023-05-23T00:21:46;95290.59;;;17.23;67.95
11268;BME280;49397;47.474;9.416;2023-05-23T00:24:13;95284.84;;;17.25;68.47
11268;BME280;49397;47.474;9.416;2023-05-23T00:26:38;95279.16;;;17.30;68.36
11268;BME280;49397;47.474;9.416;2023-05-23T00:29:04;95274.13;;;17.28;68.24
11268;BME280;49397;47.474;9.416;2023-05-23T00:31:29;95281.06;;;16.94;69.52
11268;BME280;49397;47.474;9.416;2023-05-23T00:33:56;95278.03;;;16.96;70.75
11268;BME280;49397;47.474;9.416;2023-05-23T00:36:21;95276.13;;;16.97;70.49
11268;BME280;49397;47.474;9.416;2023-05-23T00:38:47;95278.91;;;16.84;70.40
11268;BME280;49397;47.474;9.416;2023-05-23T00:41:13;95286.16;;;16.80;70.24
11268;BME280;49397;47.474;9.416;2023-05-23T00:43:39;95277.41;;;17.03;69.14
11268;BME280;49397;47.474;9.416;2023-05-23T00:46:04;95282.56;;;16.92;70.21
11268;BME280;49397;47.474;9.416;2023-05-23T00:48:31;95282.56;;;16.92;69.50
11268;BME280;49397;47.474;9.416;2023-05-23T00:50:56;95288.47;;;16.82;71.33
11268;BME280;49397;47.474;9.416;2023-05-23T00:53:23;95296.75;;;16.89;69.96
11268;BME280;49397;47.474;9.416;2023-05-23T00:55:48;95290.41;;;16.81;71.27
11268;BME280;49397;47.474;9.416;2023-05-23T00:58:15;95289.97;;;16.64;71.26
11268;BME280;49397;47.474;9.416;2023-05-23T01:00:42;95295.28;;;16.60;71.29
11268;BME280;49397;47.474;9.416;2023-05-23T01:03:09;95297.38;;;16.67;72.50
11268;BME280;49397;47.474;9.416;2023-05-23T01:05:43;95306.94;;;16.64;72.30
11268;BME280;49397;47.474;9.416;2023-05-23T01:08:08;95303.47;;;16.64;72.17
11268;BME280;49397;47.474;9.416;2023-05-23T01:10:34;95306.91;;;16.49;73.13
11268;BME280;49397;47.474;9.416;2023-05-23T01:13:23;95309.66;;;16.64;72.96
11268;BME280;49397;47.474;9.416;2023-05-23T01:16:01;95314.94;;;16.61;73.79
11268;BME280;49397;47.474;9.416;2023-05-23T01:18:48;95311.38;;;16.57;72.30
11268;BME280;49397;47.474;9.416;2023-05-23T01:21:20;95312.06;;;16.69;73.10
11268;BME280;49397;47.474;9.416;2023-05-23T01:29:27;95303.91;;;16.81;72.42
11268;BME280;49397;47.474;9.416;2023-05-23T01:31:56;95293.34;;;16.76;72.37
11268;BME280;49397;47.474;9.416;2023-05-23T01:34:22;95299.53;;;16.61;73.72
11268;BME280;49397;47.474;9.416;2023-05-23T01:36:54;95301.72;;;16.71;74.24
11268;BME280;49397;47.474;9.416;2023-05-23T01:39:21;95304.16;;;16.61;73.35
11268;BME280;49397;47.474;9.416;2023-05-23T01:41:48;95306.94;;;16.64;73.15
11268;BME280;49397;47.474;9.416;2023-05-23T01:44:14;95301.88;;;16.63;73.41
11268;BME280;49397;47.474;9.416;2023-05-23T01:46:40;95299.88;;;16.60;73.99
11268;BME280;49397;47.474;9.416;2023-05-23T01:49:07;95302.56;;;16.60;74.13
11268;BME280;49397;47.474;9.416;2023-05-23T01:51:34;95307.88;;;16.56;73.95
11268;BME280;49397;47.474;9.416;2023-05-23T01:54:00;95303.56;;;16.67;73.38
11268;BME280;49397;47.474;9.416;2023-05-23T01:56:26;95307.56;;;16.73;73.83
11268;BME280;49397;47.474;9.416;2023-05-23T01:58:53;95305.66;;;16.74;73.09
11268;BME280;49397;47.474;9.416;2023-05-23T02:01:19;95314.78;;;16.69;73.41
11268;BME280;49397;47.474;9.416;2023-05-23T02:03:44;95306.84;;;16.76;73.77
11268;BME280;49397;47.474;9.416;2023-05-23T02:06:10;95313.81;;;16.62;74.75
11268;BME280;49397;47.474;9.416;2023-05-23T02:08:36;95305.22;;;16.44;74.86
11268;BME280;49397;47.474;9.416;2023-05-23T02:11:02;95307.44;;;16.54;75.02
11268;BME280;49397;47.474;9.416;2023-05-23T02:13:27;95302.03;;;16.54;74.34
11268;BME280;49397;47.474;9.416;2023-05-23T02:15:53;95310.25;;;16.58;74.51
11268;BME280;49397;47.474;9.416;2023-05-23T02:18:19;95309.47;;;16.57;75.23
11268;BME280;49397;47.474;9.416;2023-05-23T02:20:44;95306.34;;;16.55;74.22
11268;BME280;49397;47.474;9.416;2023-05-23T02:23:10;95311.59;;;16.52;75.39
11268;BME280;49397;47.474;9.416;2023-05-23T02:25:35;95311.84;;;16.47;75.76
11268;BME280;49397;47.474;9.416;2023-05-23T02:28:01;95302.44;;;16.40;76.07
11268;BME280;49397;47.474;9.416;2023-05-23T02:30:26;95307.34;;;16.51;74.89
11268;BME280;49397;47.474;9.416;2023-05-23T02:32:52;95311.38;;;16.57;74.47
11268;BME280;49397;47.474;9.416;2023-05-23T02:35:17;95311.56;;;16.64;74.41
11268;BME280;49397;47.474;9.416;2023-05-23T02:37:43;95314.53;;;16.59;75.19
11268;BME280;49397;47.474;9.416;2023-05-23T02:40:09;95315.38;;;16.63;74.87
11268;BME280;49397;47.474;9.416;2023-05-23T02:42:35;95312.41;;;16.52;75.54
11268;BME280;49397;47.474;9.416;2023-05-23T02:45:00;95317.25;;;16.47;76.20
11268;BME280;49397;47.474;9.416;2023-05-23T02:47:26;95322.31;;;16.48;75.95
11268;BME280;49397;47.474;9.416;2023-05-23T02:49:51;95319.81;;;16.55;75.43
11268;BME280;49397;47.474;9.416;2023-05-23T02:52:17;95323.22;;;16.40;76.09
11268;BME280;49397;47.474;9.416;2023-05-23T02:54:42;95319.09;;;16.42;76.29
11268;BME280;49397;47.474;9.416;2023-05-23T02:57:08;95325.25;;;16.43;76.96
11268;BME280;49397;47.474;9.416;2023-05-23T02:59:34;95323.09;;;16.49;76.77
11268;BME280;49397;47.474;9.416;2023-05-23T03:02:00;95328.91;;;16.51;76.28
11268;BME280;49397;47.474;9.416;2023-05-23T03:04:26;95324.19;;;16.32;77.22
11268;BME280;49397;47.474;9.416;2023-05-23T03:06:51;95330.53;;;16.24;77.28
11268;BME280;49397;47.474;9.416;2023-05-23T03:09:20;95329.00;;;16.11;77.72
11268;BME280;49397;47.474;9.416;2023-05-23T03:11:46;95328.47;;;16.05;78.40
11268;BME280;49397;47.474;9.416;2023-05-23T03:14:11;95327.38;;;16.22;76.95
11268;BME280;49397;47.474;9.416;2023-05-23T03:16:37;95327.19;;;16.15;77.31
11268;BME280;49397;47.474;9.416;2023-05-23T03:19:02;95327.53;;;16.13;76.88
11268;BME280;49397;47.474;9.416;2023-05-23T03:21:29;95329.34;;;16.09;77.28
11268;BME280;49397;47.474;9.416;2023-05-23T03:23:56;95332.94;;;15.85;78.06
11268;BME280;49397;47.474;9.416;2023-05-23T03:26:21;95332.38;;;15.80;79.18
11268;BME280;49397;47.474;9.416;2023-05-23T03:28:48;95339.44;;;15.84;79.67
11268;BME280;49397;47.474;9.416;2023-05-23T03:31:14;95341.19;;;15.93;79.22
11268;BME280;49397;47.474;9.416;2023-05-23T03:33:39;95344.50;;;15.74;79.45
11268;BME280;49397;47.474;9.416;2023-05-23T03:36:05;95344.94;;;15.88;78.30
11268;BME280;49397;47.474;9.416;2023-05-23T03:38:31;95343.59;;;15.82;79.59
11268;BME280;49397;47.474;9.416;2023-05-23T03:40:56;95344.06;;;15.72;80.18
11268;BME280;49397;47.474;9.416;2023-05-23T03:43:22;95358.41;;;15.88;79.71
11268;BME280;49397;47.474;9.416;2023-05-23T03:45:47;95348.06;;;15.90;78.86
11268;BME280;49397;47.474;9.416;2023-05-23T03:48:13;95354.56;;;15.89;78.09
11268;BME280;49397;47.474;9.416;2023-05-23T03:50:38;95351.75;;;15.98;78.70
11268;BME280;49397;47.474;9.416;2023-05-23T03:53:04;95352.19;;;16.00;78.01
11268;BME280;49397;47.474;9.416;2023-05-23T03:55:30;95347.91;;;15.99;78.06
11268;BME280;49397;47.474;9.416;2023-05-23T03:57:56;95355.53;;;15.69;79.09
11268;BME280;49397;47.474;9.416;2023-05-23T04:00:22;95351.81;;;15.73;79.35
11268;BME280;49397;47.474;9.416;2023-05-23T04:02:47;95351.78;;;15.85;78.77
11268;BME280;49397;47.474;9.416;2023-05-23T04:05:14;95357.88;;;15.82;79.49
11268;BME280;49397;47.474;9.416;2023-05-23T04:07:40;95355.06;;;15.67;80.52
11268;BME280;49397;47.474;9.416;2023-05-23T04:10:07;95355.81;;;15.79;79.89
11268;BME280;49397;47.474;9.416;2023-05-23T04:12:33;95359.03;;;15.69;79.18
11268;BME280;49397;47.474;9.416;2023-05-23T04:14:59;95362.81;;;15.68;80.55
11268;BME280;49397;47.474;9.416;2023-05-23T04:17:25;95369.75;;;15.81;79.75
11268;BME280;49397;47.474;9.416;2023-05-23T04:19:55;95363.72;;;15.72;81.11
11268;BME280;49397;47.474;9.416;2023-05-23T04:22:21;95363.00;;;15.87;78.21
11268;BME280;49397;47.474;9.416;2023-05-23T04:24:46;95364.75;;;15.96;79.15
11268;BME280;49397;47.474;9.416;2023-05-23T04:27:12;95366.59;;;15.92;79.02
11268;BME280;49397;47.474;9.416;2023-05-23T04:29:38;95369.31;;;15.79;80.10
11268;BME280;49397;47.474;9.416;2023-05-23T04:32:04;95361.91;;;15.76;80.42
11268;BME280;49397;47.474;9.416;2023-05-23T04:34:30;95371.13;;;15.75;79.36
11268;BME280;49397;47.474;9.416;2023-05-23T04:37:01;95366.72;;;15.83;79.52
11268;BME280;49397;47.474;9.416;2023-05-23T04:39:27;95370.56;;;15.82;79.47
11268;BME280;49397;47.474;9.416;2023-05-23T04:41:54;95373.81;;;15.75;79.90
11268;BME280;49397;47.474;9.416;2023-05-23T04:44:21;95371.81;;;15.72;80.03
11268;BME280;49397;47.474;9.416;2023-05-23T04:46:47;95373.16;;;15.54;81.22
11268;BME280;49397;47.474;9.416;2023-05-23T04:49:12;95378.22;;;15.56;80.52
11268;BME280;49397;47.474;9.416;2023-05-23T04:51:38;95374.16;;;15.74;80.02
11268;BME280;49397;47.474;9.416;2023-05-23T04:54:04;95366.88;;;15.62;79.90
11268;BME280;49397;47.474;9.416;2023-05-23T04:56:29;95372.22;;;15.86;79.88
11268;BME280;49397;47.474;9.416;2023-05-23T04:58:55;95377.72;;;16.18;81.52
11268;BME280;49397;47.474;9.416;2023-05-23T05:01:21;95365.81;;;16.19;78.94
11268;BME280;49397;47.474;9.416;2023-05-23T05:03:49;95373.97;;;16.50;80.00
11268;BME280;49397;47.474;9.416;2023-05-23T05:06:15;95370.97;;;16.52;77.13
11268;BME280;49397;47.474;9.416;2023-05-23T05:08:41;95375.19;;;16.65;76.55
11268;BME280;49397;47.474;9.416;2023-05-23T05:11:08;95371.50;;;16.57;77.28
11268;BME280;49397;47.474;9.416;2023-05-23T05:13:34;95375.81;;;16.74;75.70
11268;BME280;49397;47.474;9.416;2023-05-23T05:16:00;95374.44;;;16.96;76.63
11268;BME280;49397;47.474;9.416;2023-05-23T05:18:25;95378.50;;;17.21;76.34
11268;BME280;49397;47.474;9.416;2023-05-23T05:20:51;95381.88;;;17.49;74.90
11268;BME280;49397;47.474;9.416;2023-05-23T05:23:17;95386.47;;;17.80;74.59
11268;BME280;49397;47.474;9.416;2023-05-23T05:25:42;95385.09;;;18.05;73.48
11268;BME280;49397;47.474;9.416;2023-05-23T05:28:08;95383.81;;;18.18;72.16
11268;BME280;49397;47.474;9.416;2023-05-23T05:30:34;95391.56;;;18.01;71.30
11268;BME280;49397;47.474;9.416;2023-05-23T05:33:04;95382.56;;;17.96;71.66
11268;BME280;49397;47.474;9.416;2023-05-23T05:35:39;95383.16;;;17.86;71.49
11268;BME280;49397;47.474;9.416;2023-05-23T05:38:04;95381.47;;;17.63;72.05
11268;BME280;49397;47.474;9.416;2023-05-23T05:40:31;95380.91;;;17.73;72.58
11268;BME280;49397;47.474;9.416;2023-05-23T05:42:56;95390.53;;;17.70;72.06
11268;BME280;49397;47.474;9.416;2023-05-23T05:45:22;95384.66;;;17.53;72.77
11268;BME280;49397;47.474;9.416;2023-05-23T05:47:47;95385.91;;;17.39;72.99
11268;BME280;49397;47.474;9.416;2023-05-23T05:50:13;95377.53;;;17.44;72.21
11268;BME280;49397;47.474;9.416;2023-05-23T05:52:40;95378.25;;;17.41;72.10
11268;BME280;49397;47.474;9.416;2023-05-23T05:55:08;95379.19;;;17.49;72.44
11268;BME280;49397;47.474;9.416;2023-05-23T05:57:40;95384.44;;;17.58;72.01
11268;BME280;49397;47.474;9.416;2023-05-23T06:00:08;95380.75;;;17.50;72.52
11268;BME280;49397;47.474;9.416;2023-05-23T06:02:38;95388.28;;;17.57;72.61
11268;BME280;49397;47.474;9.416;2023-05-23T06:05:04;95392.50;;;17.73;72.46
11268;BME280;49397;47.474;9.416;2023-05-23T06:07:34;95388.91;;;17.85;72.85
11268;BME280;49397;47.474;9.416;2023-05-23T06:10:01;95392.13;;;18.10;71.20
11268;BME280;49397;47.474;9.416;2023-05-23T06:12:26;95388.13;;;18.04;71.28
11268;BME280;49397;47.474;9.416;2023-05-23T06:14:52;95391.38;;;18.09;72.42
11268;BME280;49397;47.474;9.416;2023-05-23T06:17:17;95400.41;;;18.17;71.89
11268;BME280;49397;47.474;9.416;2023-05-23T06:19:43;95394.97;;;18.17;73.20
11268;BME280;49397;47.474;9.416;2023-05-23T06:22:08;95396.63;;;18.21;72.90
11268;BME280;49397;47.474;9.416;2023-05-23T06:24:34;95403.03;;;18.32;70.62
11268;BME280;49397;47.474;9.416;2023-05-23T06:26:59;95405.03;;;18.35;71.45
11268;BME280;49397;47.474;9.416;2023-05-23T06:29:25;95410.81;;;18.34;71.48
11268;BME280;49397;47.474;9.416;2023-05-23T06:31:50;95401.53;;;18.16;70.23
11268;BME280;49397;47.474;9.416;2023-05-23T06:34:15;95408.09;;;18.34;70.98
11268;BME280;49397;47.474;9.416;2023-05-23T06:36:41;95407.09;;;18.23;71.63
11268;BME280;49397;47.474;9.416;2023-05-23T06:39:07;95417.75;;;18.35;71.31
11268;BME280;49397;47.474;9.416;2023-05-23T06:41:35;95404.97;;;18.51;70.65
11268;BME280;49397;47.474;9.416;2023-05-23T06:44:00;95412.75;;;18.53;71.46
11268;BME280;49397;47.474;9.416;2023-05-23T06:46:26;95411.00;;;18.44;70.38
11268;BME280;49397;47.474;9.416;2023-05-23T06:48:51;95410.53;;;18.58;70.31
11268;BME280;49397;47.474;9.416;2023-05-23T06:51:16;95404.59;;;18.72;70.00
11268;BME280;49397;47.474;9.416;2023-05-23T06:53:42;95409.59;;;18.89;70.28
11268;BME280;49397;47.474;9.416;2023-05-23T06:56:07;95411.84;;;18.87;69.58
11268;BME280;49397;47.474;9.416;2023-05-23T06:58:33;95420.72;;;18.65;70.57
11268;BME280;49397;47.474;9.416;2023-05-23T07:00:58;95415.50;;;18.75;70.33
11268;BME280;49397;47.474;9.416;2023-05-23T07:03:24;95421.66;;;18.72;70.96
11268;BME280;49397;47.474;9.416;2023-05-23T07:05:49;95418.47;;;18.89;69.30
11268;BME280;49397;47.474;9.416;2023-05-23T07:08:15;95425.31;;;18.83;70.25
11268;BME280;49397;47.474;9.416;2023-05-23T07:10:41;95430.72;;;18.83;68.07
11268;BME280;49397;47.474;9.416;2023-05-23T07:13:06;95421.31;;;18.96;68.86
11268;BME280;49397;47.474;9.416;2023-05-23T07:15:32;95429.66;;;18.88;69.22
11268;BME280;49397;47.474;9.416;2023-05-23T07:17:57;95417.88;;;18.99;67.82
11268;BME280;49397;47.474;9.416;2023-05-23T07:20:22;95433.66;;;18.94;69.82
11268;BME280;49397;47.474;9.416;2023-05-23T07:22:48;95426.00;;;18.99;69.59
11268;BME280;49397;47.474;9.416;2023-05-23T07:25:16;95421.19;;;19.12;68.22
11268;BME280;49397;47.474;9.416;2023-05-23T07:27:41;95423.47;;;18.87;69.38
11268;BME280;49397;47.474;9.416;2023-05-23T07:30:08;95423.44;;;19.07;68.79
11268;BME280;49397;47.474;9.416;2023-05-23T07:32:36;95420.91;;;19.17;67.84
11268;BME280;49397;47.474;9.416;2023-05-23T07:35:02;95426.44;;;19.01;68.80
11268;BME280;49397;47.474;9.416;2023-05-23T07:37:28;95428.78;;;19.26;68.64
11268;BME280;49397;47.474;9.416;2023-05-23T07:39:53;95428.66;;;19.19;67.52
11268;BME280;49397;47.474;9.416;2023-05-23T07:42:18;95431.97;;;19.31;68.16
11268;BME280;49397;47.474;9.416;2023-05-23T07:44:44;95432.38;;;19.52;67.13
11268;BME280;49397;47.474;9.416;2023-05-23T07:47:10;95432.59;;;19.44;67.11
11268;BME280;49397;47.474;9.416;2023-05-23T07:49:35;95434.63;;;19.28;67.86
11268;BME280;49397;47.474;9.416;2023-05-23T07:52:01;95425.72;;;19.05;69.26
11268;BME280;49397;47.474;9.416;2023-05-23T07:54:26;95435.31;;;19.02;70.03
11268;BME280;49397;47.474;9.416;2023-05-23T07:56:52;95449.91;;;18.94;69.55
11268;BME280;49397;47.474;9.416;2023-05-23T07:59:18;95453.75;;;18.93;69.66
11268;BME280;49397;47.474;9.416;2023-05-23T08:01:44;95446.06;;;18.95;69.40
11268;BME280;49397;47.474;9.416;2023-05-23T08:04:09;95441.34;;;18.92;69.58
11268;BME280;49397;47.474;9.416;2023-05-23T08:06:35;95444.34;;;18.87;70.00
11268;BME280;49397;47.474;9.416;2023-05-23T08:09:02;95445.34;;;18.98;69.29
11268;BME280;49397;47.474;9.416;2023-05-23T08:11:27;95450.72;;;18.75;69.82
11268;BME280;49397;47.474;9.416;2023-05-23T08:13:54;95448.66;;;18.49;71.17
11268;BME280;49397;47.474;9.416;2023-05-23T08:16:20;95441.88;;;18.59;70.51
11268;BME280;49397;47.474;9.416;2023-05-23T08:18:45;95446.72;;;18.69;70.35
11268;BME280;49397;47.474;9.416;2023-05-23T08:21:11;95445.00;;;18.80;70.37
11268;BME280;49397;47.474;9.416;2023-05-23T08:23:37;95447.94;;;18.72;70.40
11268;BME280;49397;47.474;9.416;2023-05-23T08:26:02;95439.78;;;18.91;71.35
11268;BME280;49397;47.474;9.416;2023-05-23T08:28:27;95446.81;;;18.95;69.58
11268;BME280;49397;47.474;9.416;2023-05-23T08:30:53;95454.34;;;19.06;69.58
11268;BME280;49397;47.474;9.416;2023-05-23T08:33:21;95450.88;;;19.05;69.34
11268;BME280;49397;47.474;9.416;2023-05-23T08:35:46;95445.53;;;19.31;68.07
11268;BME280;49397;47.474;9.416;2023-05-23T08:38:12;95453.56;;;19.47;68.16
11268;BME280;49397;47.474;9.416;2023-05-23T08:40:38;95446.69;;;19.30;68.76
11268;BME280;49397;47.474;9.416;2023-05-23T08:43:05;95453.09;;;19.41;68.78
11268;BME280;49397;47.474;9.416;2023-05-23T08:45:31;95464.63;;;19.38;69.10
11268;BME280;49397;47.474;9.416;2023-05-23T08:48:00;95455.94;;;19.29;68.15
11268;BME280;49397;47.474;9.416;2023-05-23T08:50:27;95461.25;;;19.22;69.06
11268;BME280;49397;47.474;9.416;2023-05-23T08:52:58;95465.47;;;19.20;69.07
11268;BME280;49397;47.474;9.416;2023-05-23T08:55:24;95459.59;;;19.18;69.55
11268;BME280;49397;47.474;9.416;2023-05-23T08:57:54;95465.31;;;19.13;70.44
11268;BME280;49397;47.474;9.416;2023-05-23T09:00:22;95467.03;;;19.21;71.13
11268;BME280;49397;47.474;9.416;2023-05-23T09:02:49;95467.00;;;19.40;70.76
11268;BME280;49397;47.474;9.416;2023-05-23T09:05:14;95464.72;;;19.42;70.28
11268;BME280;49397;47.474;9.416;2023-05-23T09:07:40;95462.47;;;19.47;70.62
11268;BME280;49397;47.474;9.416;2023-05-23T09:10:07;95463.91;;;19.64;69.98
11268;BME280;49397;47.474;9.416;2023-05-23T09:12:34;95459.88;;;20.03;69.81
11268;BME280;49397;47.474;9.416;2023-05-23T09:15:02;95466.75;;;20.24;68.39
11268;BME280;49397;47.474;9.416;2023-05-23T09:17:27;95474.38;;;20.15;68.04
11268;BME280;49397;47.474;9.416;2023-05-23T09:19:53;95471.94;;;20.32;68.28
11268;BME280;49397;47.474;9.416;2023-05-23T09:22:25;95468.81;;;20.30;67.19
11268;BME280;49397;47.474;9.416;2023-05-23T09:24:52;95468.66;;;20.23;67.10
11268;BME280;49397;47.474;9.416;2023-05-23T09:27:18;95470.16;;;20.43;66.44
11268;BME280;49397;47.474;9.416;2023-05-23T09:29:43;95470.84;;;20.37;68.21
11268;BME280;49397;47.474;9.416;2023-05-23T09:32:13;95474.84;;;20.46;67.09
11268;BME280;49397;47.474;9.416;2023-05-23T09:37:15;95468.44;;;20.05;67.69
11268;BME280;49397;47.474;9.416;2023-05-23T09:39:46;95466.22;;;19.88;66.57
11268;BME280;49397;47.474;9.416;2023-05-23T09:42:20;95469.69;;;19.63;69.29
11268;BME280;49397;47.474;9.416;2023-05-23T09:44:49;95463.44;;;19.81;69.62
11268;BME280;49397;47.474;9.416;2023-05-23T09:47:15;95468.13;;;19.84;69.37
11268;BME280;49397;47.474;9.416;2023-05-23T09:49:44;95465.94;;;19.93;68.19
11268;BME280;49397;47.474;9.416;2023-05-23T09:52:10;95463.34;;;20.04;66.53
11268;BME280;49397;47.474;9.416;2023-05-23T09:54:36;95458.94;;;20.45;65.85
11268;BME280;49397;47.474;9.416;2023-05-23T09:57:02;95470.06;;;20.66;65.59
11268;BME280;49397;47.474;9.416;2023-05-23T09:59:30;95459.75;;;20.49;65.10
11268;BME280;49397;47.474;9.416;2023-05-23T10:01:59;95459.22;;;20.40;66.40
11268;BME280;49397;47.474;9.416;2023-05-23T10:04:33;95454.34;;;20.23;68.06
11268;BME280;49397;47.474;9.416;2023-05-23T10:07:25;95441.63;;;20.56;67.93
11268;BME280;49397;47.474;9.416;2023-05-23T10:09:57;95449.31;;;20.51;70.23
11268;BME280;49397;47.474;9.416;2023-05-23T10:14:59;95448.00;;;19.63;72.46
11268;BME280;49397;47.474;9.416;2023-05-23T10:17:38;95448.00;;;19.63;72.90
11268;BME280;49397;47.474;9.416;2023-05-23T10:20:15;95447.47;;;20.02;72.82
11268;BME280;49397;47.474;9.416;2023-05-23T10:22:41;95445.72;;;20.17;69.06
11268;BME280;49397;47.474;9.416;2023-05-23T10:25:08;95444.78;;;20.62;67.62
11268;BME280;49397;47.474;9.416;2023-05-23T10:27:38;95443.59;;;20.96;68.70
11268;BME280;49397;47.474;9.416;2023-05-23T10:30:05;95439.31;;;20.92;69.24
11268;BME280;49397;47.474;9.416;2023-05-23T10:32:31;95442.56;;;21.45;67.68
11268;BME280;49397;47.474;9.416;2023-05-23T10:35:20;95434.19;;;21.20;64.87
11268;BME280;49397;47.474;9.416;2023-05-23T10:41:22;95430.88;;;21.88;65.67
11268;BME280;49397;47.474;9.416;2023-05-23T10:44:04;95429.91;;;22.18;63.39
11268;BME280;49397;47.474;9.416;2023-05-23T10:49:15;95425.22;;;21.63;62.46
11268;BME280;49397;47.474;9.416;2023-05-23T10:51:41;95433.09;;;21.72;62.78
11268;BME280;49397;47.474;9.416;2023-05-23T10:54:09;95422.53;;;22.22;60.56
11268;BME280;49397;47.474;9.416;2023-05-23T10:56:35;95424.59;;;21.81;63.00
11268;BME280;49397;47.474;9.416;2023-05-23T10:59:04;95422.34;;;22.58;60.20
11268;BME280;49397;47.474;9.416;2023-05-23T11:01:30;95425.63;;;23.13;58.91
11268;BME280;49397;47.474;9.416;2023-05-23T11:03:56;95417.13;;;23.68;55.10
11268;BME280;49397;47.474;9.416;2023-05-23T11:09:17;95421.75;;;24.03;56.14
11268;BME280;49397;47.474;9.416;2023-05-23T11:14:14;95415.94;;;24.01;55.70
11268;BME280;49397;47.474;9.416;2023-05-23T11:16:41;95405.00;;;24.18;55.04
11268;BME280;49397;47.474;9.416;2023-05-23T11:21:43;95412.78;;;24.31;57.20
11268;BME280;49397;47.474;9.416;2023-05-23T11:24:09;95413.19;;;23.34;56.05
11268;BME280;49397;47.474;9.416;2023-05-23T11:26:35;95409.25;;;22.99;57.48
11268;BME280;49397;47.474;9.416;2023-05-23T11:29:00;95409.84;;;22.54;58.53
11268;BME280;49397;47.474;9.416;2023-05-23T11:31:28;95403.75;;;22.78;58.68
11268;BME280;49397;47.474;9.416;2023-05-23T11:33:54;95401.31;;;22.59;60.86
11268;BME280;49397;47.474;9.416;2023-05-23T11:36:20;95406.78;;;22.59;58.82
11268;BME280;49397;47.474;9.416;2023-05-23T11:38:48;95408.44;;;22.95;56.89
11268;BME280;49397;47.474;9.416;2023-05-23T11:41:14;95392.97;;;23.42;53.14
11268;BME280;49397;47.474;9.416;2023-05-23T11:43:50;95403.47;;;23.43;55.27
11268;BME280;49397;47.474;9.416;2023-05-23T11:46:16;95398.81;;;23.47;56.23
11268;BME280;49397;47.474;9.416;2023-05-23T11:48:45;95393.25;;;22.94;57.99
11268;BME280;49397;47.474;9.416;2023-05-23T11:51:11;95391.94;;;22.53;58.99
11268;BME280;49397;47.474;9.416;2023-05-23T11:53:37;95397.81;;;22.55;59.19
11268;BME280;49397;47.474;9.416;2023-05-23T11:56:02;95400.06;;;21.77;59.34
11268;BME280;49397;47.474;9.416;2023-05-23T11:58:33;95396.69;;;21.40;61.13
11268;BME280;49397;47.474;9.416;2023-05-23T12:01:03;95387.63;;;21.25;62.33
11268;BME280;49397;47.474;9.416;2023-05-23T12:03:30;95393.84;;;21.26;62.17
11268;BME280;49397;47.474;9.416;2023-05-23T12:05:58;95390.03;;;21.34;60.81
11268;BME280;49397;47.474;9.416;2023-05-23T12:08:26;95395.56;;;21.04;61.08
11268;BME280;49397;47.474;9.416;2023-05-23T12:11:01;95396.38;;;21.08;60.58
11268;BME280;49397;47.474;9.416;2023-05-23T12:13:28;95384.84;;;21.18;61.49
11268;BME280;49397;47.474;9.416;2023-05-23T12:15:59;95389.16;;;21.23;61.15
11268;BME280;49397;47.474;9.416;2023-05-23T12:18:30;95387.63;;;21.25;61.13
11268;BME280;49397;47.474;9.416;2023-05-23T12:21:00;95391.09;;;21.22;61.05
11268;BME280;49397;47.474;9.416;2023-05-23T12:23:28;95400.47;;;21.28;62.02
11268;BME280;49397;47.474;9.416;2023-05-23T12:25:54;95405.44;;;21.19;61.38
11268;BME280;49397;47.474;9.416;2023-05-23T12:28:32;95397.72;;;21.25;61.38
11268;BME280;49397;47.474;9.416;2023-05-23T12:30:58;95391.91;;;21.26;61.03
11268;BME280;49397;47.474;9.416;2023-05-23T12:33:24;95385.72;;;21.29;61.11
11268;BME280;49397;47.474;9.416;2023-05-23T12:35:50;95388.84;;;21.31;61.75
11268;BME280;49397;47.474;9.416;2023-05-23T12:38:15;95392.69;;;21.27;60.45
11268;BME280;49397;47.474;9.416;2023-05-23T12:40:42;95399.38;;;21.36;59.14
11268;BME280;49397;47.474;9.416;2023-05-23T12:43:08;95396.91;;;21.21;61.70
11268;BME280;49397;47.474;9.416;2023-05-23T12:45:35;95398.25;;;21.41;59.97
11268;BME280;49397;47.474;9.416;2023-05-23T12:48:02;95397.38;;;21.30;61.09
11268;BME280;49397;47.474;9.416;2023-05-23T12:50:28;95395.56;;;21.04;60.63
11268;BME280;49397;47.474;9.416;2023-05-23T12:52:53;95396.94;;;20.87;62.45
11268;BME280;49397;47.474;9.416;2023-05-23T12:55:19;95393.44;;;20.83;60.94
11268;BME280;49397;47.474;9.416;2023-05-23T12:57:44;95396.38;;;21.08;62.00
11268;BME280;49397;47.474;9.416;2023-05-23T13:00:10;95395.03;;;20.91;61.40
11268;BME280;49397;47.474;9.416;2023-05-23T13:02:36;95396.66;;;20.96;61.17
11268;BME280;49397;47.474;9.416;2023-05-23T13:05:03;95388.69;;;21.14;61.10
11268;BME280;49397;47.474;9.416;2023-05-23T13:07:29;95388.59;;;21.06;61.13
11268;BME280;49397;47.474;9.416;2023-05-23T13:09:55;95391.03;;;21.15;60.98
11268;BME280;49397;47.474;9.416;2023-05-23T13:12:20;95389.63;;;21.32;60.17
11268;BME280;49397;47.474;9.416;2023-05-23T13:14:48;95398.66;;;21.02;62.65
11268;BME280;49397;47.474;9.416;2023-05-23T13:17:13;95388.94;;;21.01;63.18
11268;BME280;49397;47.474;9.416;2023-05-23T13:19:39;95388.59;;;21.06;63.41
11268;BME280;49397;47.474;9.416;2023-05-23T13:22:08;95387.88;;;21.09;63.48
11268;BME280;49397;47.474;9.416;2023-05-23T13:24:38;95398.28;;;20.67;63.30